Time;durP1;ratioP1;P1;durP2;ratioP2;P2;SDS_P1;SDS_P2;PMS_P1;PMS_P2;Temp;Humidity;BMP_temperature;BMP_pressure;BME280_temperature;BME280_humidity;BME280_pressure;Samples;Min_cycle;Max_cycle;Signal;HPM_P1;HPM_P2
2021/08/21 00:02:10;;;;;;;8.95;6.63;;;21.40;62.20;;;;;;5056754;28;20055;-35
2021/08/21 00:04:37;;;;;;;9.13;8.23;;;21.40;62.40;;;;;;5057256;28;20060;-35
2021/08/21 00:07:06;;;;;;;9.95;7.32;;;21.40;62.40;;;;;;5056993;28;20056;-35
2021/08/21 00:09:33;;;;;;;10.60;8.88;;;21.40;62.40;;;;;;5057011;28;20056;-35
2021/08/21 00:11:59;;;;;;;8.77;7.63;;;21.30;62.50;;;;;;5056584;28;20049;-35
2021/08/21 00:14:25;;;;;;;9.65;7.72;;;21.30;62.60;;;;;;5056825;28;20309;-35
2021/08/21 00:16:50;;;;;;;10.05;8.95;;;21.20;62.60;;;;;;5056286;28;20076;-35
2021/08/21 00:19:16;;;;;;;8.80;7.90;;;21.20;62.80;;;;;;5056692;28;20055;-36
2021/08/21 00:21:42;;;;;;;9.43;8.20;;;21.20;62.90;;;;;;5056841;28;20063;-35
2021/08/21 00:24:07;;;;;;;9.55;7.80;;;21.10;62.80;;;;;;5056691;28;20028;-35
2021/08/21 00:26:33;;;;;;;10.48;9.45;;;21.10;62.90;;;;;;5056684;28;20033;-36
2021/08/21 00:28:59;;;;;;;9.80;8.90;;;21.10;63.60;;;;;;5056338;28;20028;-35
2021/08/21 00:31:25;;;;;;;9.55;8.40;;;21.00;63.00;;;;;;5056280;28;20041;-36
2021/08/21 00:33:51;;;;;;;9.95;9.05;;;21.00;63.00;;;;;;5056485;28;20066;-36
2021/08/21 00:36:16;;;;;;;8.88;7.97;;;21.00;63.10;;;;;;5056389;28;20033;-35
2021/08/21 00:38:42;;;;;;;8.05;7.25;;;21.00;63.30;;;;;;5054952;28;20032;-35
2021/08/21 00:41:07;;;;;;;8.52;6.95;;;21.00;63.40;;;;;;5056655;28;20033;-35
2021/08/21 00:43:38;;;;;;;8.55;7.65;;;20.90;63.40;;;;;;5056392;28;20359;-35
2021/08/21 00:46:04;;;;;;;9.50;8.32;;;20.90;63.40;;;;;;5056691;28;20025;-35
2021/08/21 00:48:30;;;;;;;9.52;8.55;;;20.90;63.50;;;;;;5056295;28;20455;-35
2021/08/21 00:50:58;;;;;;;9.27;8.27;;;20.90;63.60;;;;;;5056448;28;20028;-35
2021/08/21 00:53:25;;;;;;;8.77;7.65;;;20.90;63.70;;;;;;5055908;28;20025;-35
2021/08/21 00:55:51;;;;;;;14.73;8.48;;;20.80;63.60;;;;;;5056469;28;20053;-35
2021/08/21 00:58:23;;;;;;;8.77;7.88;;;20.80;63.60;;;;;;5055826;28;20056;-35
2021/08/21 01:00:50;;;;;;;9.50;8.18;;;20.80;63.70;;;;;;5056372;28;20116;-36
2021/08/21 01:03:16;;;;;;;10.02;8.52;;;20.80;63.70;;;;;;5056440;28;20424;-35
2021/08/21 01:05:41;;;;;;;10.05;9.05;;;20.80;63.80;;;;;;5055945;28;20120;-34
2021/08/21 01:08:07;;;;;;;11.40;8.05;;;20.80;63.80;;;;;;5056230;28;20115;-35
2021/08/21 01:10:33;;;;;;;8.85;7.88;;;20.70;63.90;;;;;;5056135;28;20025;-35
2021/08/21 01:12:59;;;;;;;9.68;8.73;;;20.70;64.10;;;;;;5055789;28;20422;-36
2021/08/21 01:15:26;;;;;;;9.70;7.18;;;20.70;64.20;;;;;;5055695;28;20045;-36
2021/08/21 01:17:53;;;;;;;9.93;8.23;;;20.70;64.30;;;;;;5055494;28;20057;-35
2021/08/21 01:20:19;;;;;;;9.10;6.80;;;20.70;64.40;;;;;;5055944;28;20040;-35
2021/08/21 01:22:45;;;;;;;11.70;9.77;;;20.70;64.60;;;;;;5055843;28;20337;-36
2021/08/21 01:25:17;;;;;;;9.30;8.27;;;20.60;64.70;;;;;;5056008;28;20043;-35
2021/08/21 01:27:43;;;;;;;9.52;8.63;;;20.60;64.80;;;;;;5055743;28;20234;-36
2021/08/21 01:30:09;;;;;;;10.68;9.57;;;20.60;65.00;;;;;;5055947;28;20060;-36
2021/08/21 01:32:36;;;;;;;10.52;9.52;;;20.60;65.20;;;;;;5055305;28;20033;-35
2021/08/21 01:35:02;;;;;;;10.60;9.35;;;20.50;65.40;;;;;;5055789;28;20040;-37
2021/08/21 01:37:27;;;;;;;16.55;8.50;;;20.50;65.50;;;;;;5055252;28;20108;-39
2021/08/21 01:39:55;;;;;;;10.80;9.25;;;20.50;66.20;;;;;;5055919;28;20067;-36
2021/08/21 01:42:21;;;;;;;7.82;7.03;;;20.40;66.30;;;;;;5055277;28;20037;-34
2021/08/21 01:44:47;;;;;;;12.10;10.77;;;20.40;65.90;;;;;;5055528;28;20033;-35
2021/08/21 01:47:14;;;;;;;10.35;8.00;;;20.40;66.20;;;;;;5055415;28;20043;-36
2021/08/21 01:49:50;;;;;;;8.65;7.43;;;20.40;66.20;;;;;;5055076;28;20045;-35
2021/08/21 01:52:16;;;;;;;10.05;8.90;;;20.40;66.30;;;;;;5055552;28;20037;-36
2021/08/21 01:54:41;;;;;;;11.63;10.43;;;20.30;66.60;;;;;;5055815;28;20313;-35
2021/08/21 01:57:07;;;;;;;10.40;8.50;;;20.30;66.80;;;;;;5055159;28;20033;-34
2021/08/21 01:59:41;;;;;;;10.65;9.55;;;20.30;67.10;;;;;;5055427;28;20036;-34
2021/08/21 02:02:09;;;;;;;11.18;10.07;;;20.20;67.20;;;;;;5055229;28;20366;-35
2021/08/21 02:04:35;;;;;;;11.68;10.57;;;20.20;67.30;;;;;;5055323;28;20058;-36
2021/08/21 02:07:01;;;;;;;11.13;9.98;;;20.20;67.60;;;;;;5055269;28;20048;-34
2021/08/21 02:09:28;;;;;;;11.88;9.90;;;20.10;67.70;;;;;;5055237;28;20171;-36
2021/08/21 02:11:55;;;;;;;12.93;10.93;;;20.10;67.80;;;;;;5055304;28;20322;-35
2021/08/21 02:14:23;;;;;;;11.13;9.98;;;20.10;68.00;;;;;;5055533;28;20029;-35
2021/08/21 02:16:51;;;;;;;11.10;9.27;;;20.10;68.00;;;;;;5056415;28;20096;-35
2021/08/21 02:19:18;;;;;;;16.42;8.90;;;20.00;68.00;;;;;;5059162;28;20102;-35
2021/08/21 02:21:45;;;;;;;11.88;9.23;;;20.00;68.10;;;;;;5058889;28;20163;-36
2021/08/21 02:24:11;;;;;;;12.38;8.85;;;20.00;68.20;;;;;;5058808;28;20032;-35
2021/08/21 02:26:41;;;;;;;10.55;8.30;;;20.00;68.20;;;;;;5058718;28;20032;-36
2021/08/21 02:29:07;;;;;;;12.85;10.90;;;20.00;68.30;;;;;;5059032;28;20451;-36
2021/08/21 02:31:33;;;;;;;9.95;8.95;;;20.00;68.40;;;;;;5058558;28;20036;-35
2021/08/21 02:33:59;;;;;;;12.45;8.50;;;19.90;68.40;;;;;;5058533;28;20055;-34
2021/08/21 02:36:25;;;;;;;13.48;10.68;;;19.90;68.60;;;;;;5058883;28;20037;-36
2021/08/21 02:38:51;;;;;;;11.35;9.38;;;19.90;68.70;;;;;;5058753;28;20021;-36
2021/08/21 02:41:17;;;;;;;13.32;8.52;;;19.90;68.80;;;;;;5058467;28;20040;-35
2021/08/21 02:43:43;;;;;;;10.00;8.73;;;19.90;68.80;;;;;;5058594;28;20025;-34
2021/08/21 02:46:08;;;;;;;9.98;9.02;;;19.90;68.80;;;;;;5058861;28;20397;-35
2021/08/21 02:48:34;;;;;;;12.65;10.40;;;19.90;68.90;;;;;;5058394;28;20037;-35
2021/08/21 02:51:00;;;;;;;12.77;11.38;;;19.80;69.00;;;;;;5058560;28;20465;-35
2021/08/21 02:53:26;;;;;;;10.77;9.75;;;19.80;69.10;;;;;;5058293;28;20108;-35
2021/08/21 02:55:51;;;;;;;12.35;10.75;;;19.80;69.10;;;;;;5058636;28;20016;-35
2021/08/21 02:58:17;;;;;;;8.02;7.20;;;19.80;69.30;;;;;;5058051;28;20025;-36
2021/08/21 03:00:43;;;;;;;12.73;11.25;;;19.70;69.20;;;;;;5058125;28;20433;-35
2021/08/21 03:03:09;;;;;;;12.25;11.07;;;19.70;69.40;;;;;;5058091;28;20032;-35
2021/08/21 03:05:35;;;;;;;11.50;10.30;;;19.70;69.50;;;;;;5058348;28;20048;-35
2021/08/21 03:08:01;;;;;;;13.93;11.25;;;19.60;69.60;;;;;;5058004;28;20397;-36
2021/08/21 03:10:27;;;;;;;14.35;13.00;;;19.60;69.70;;;;;;5058060;28;20111;-35
2021/08/21 03:12:52;;;;;;;11.13;10.13;;;19.60;70.00;;;;;;5057793;28;20044;-35
2021/08/21 03:15:18;;;;;;;11.82;10.73;;;19.50;70.00;;;;;;5056439;28;20345;-36
2021/08/21 03:17:44;;;;;;;12.98;10.20;;;19.50;70.10;;;;;;5057801;28;20474;-36
2021/08/21 03:20:10;;;;;;;12.43;11.07;;;19.50;70.30;;;;;;5057536;28;20041;-37
2021/08/21 03:22:36;;;;;;;14.20;11.38;;;19.50;70.40;;;;;;5057283;28;20310;-35
2021/08/21 03:25:02;;;;;;;12.25;11.05;;;19.50;70.40;;;;;;5057963;28;20025;-34
2021/08/21 03:27:28;;;;;;;13.60;12.40;;;19.40;70.50;;;;;;5057201;28;20477;-35
2021/08/21 03:29:53;;;;;;;13.15;11.88;;;19.40;70.60;;;;;;5057565;28;20028;-35
2021/08/21 03:32:19;;;;;;;11.88;10.77;;;19.40;70.60;;;;;;5057380;28;20037;-35
2021/08/21 03:34:45;;;;;;;12.75;11.57;;;19.40;71.20;;;;;;5057446;28;20029;-35
2021/08/21 03:37:12;;;;;;;13.27;11.88;;;19.40;70.80;;;;;;5056744;28;20033;-34
2021/08/21 03:39:38;;;;;;;12.95;10.27;;;19.40;70.90;;;;;;5057652;28;20029;-35
2021/08/21 03:42:05;;;;;;;13.25;11.85;;;19.40;71.00;;;;;;5056993;28;20060;-36
2021/08/21 03:44:30;;;;;;;13.63;12.38;;;19.40;71.10;;;;;;5057138;28;20021;-36
2021/08/21 03:46:56;;;;;;;11.40;9.13;;;19.40;71.20;;;;;;5057118;28;20091;-36
2021/08/21 03:49:22;;;;;;;9.20;8.02;;;19.40;71.20;;;;;;5057257;28;20032;-35
2021/08/21 03:51:47;;;;;;;12.43;10.85;;;19.40;71.40;;;;;;5057176;28;20036;-34
2021/08/21 03:54:13;;;;;;;13.77;10.68;;;19.40;71.40;;;;;;5057344;28;20052;-35
2021/08/21 03:56:39;;;;;;;12.43;11.23;;;19.40;71.40;;;;;;5057076;28;20299;-36
2021/08/21 03:59:05;;;;;;;9.18;8.27;;;19.40;71.60;;;;;;5056814;28;20475;-35
2021/08/21 04:01:31;;;;;;;12.10;10.30;;;19.40;71.50;;;;;;5057154;28;20048;-35
2021/08/21 04:03:57;;;;;;;10.93;9.82;;;19.40;71.50;;;;;;5056934;28;20024;-35
2021/08/21 04:06:22;;;;;;;11.88;9.68;;;19.40;71.40;;;;;;5056564;28;20032;-36
2021/08/21 04:08:48;;;;;;;10.00;8.93;;;19.50;72.00;;;;;;5056431;28;20471;-36
2021/08/21 04:11:14;;;;;;;11.93;10.82;;;19.60;71.40;;;;;;5057046;28;20075;-35
2021/08/21 04:13:40;;;;;;;11.75;10.65;;;19.60;71.40;;;;;;5056705;28;20037;-36
2021/08/21 04:16:05;;;;;;;12.05;10.80;;;19.60;71.40;;;;;;5056308;28;20121;-35
2021/08/21 04:18:31;;;;;;;15.60;13.63;;;19.60;71.40;;;;;;5054973;28;20021;-35
2021/08/21 04:20:57;;;;;;;13.82;10.95;;;19.60;71.20;;;;;;5056736;28;20036;-35
2021/08/21 04:23:23;;;;;;;10.82;9.38;;;19.60;71.30;;;;;;5056419;28;20045;-35
2021/08/21 04:25:49;;;;;;;14.95;11.30;;;19.70;71.30;;;;;;5056618;28;20092;-35
2021/08/21 04:28:15;;;;;;;11.52;10.32;;;19.70;71.30;;;;;;5056176;28;20041;-35
2021/08/21 04:30:41;;;;;;;16.58;13.20;;;19.80;71.30;;;;;;5056615;28;20120;-36
2021/08/21 04:33:06;;;;;;;16.15;11.88;;;19.80;71.10;;;;;;5056066;28;20021;-36
2021/08/21 04:35:32;;;;;;;14.23;10.18;;;19.80;71.00;;;;;;5056415;28;20033;-36
2021/08/21 04:37:58;;;;;;;14.13;12.73;;;19.80;70.90;;;;;;5055735;28;20123;-35
2021/08/21 04:40:24;;;;;;;13.32;11.43;;;19.90;71.00;;;;;;5055778;28;20210;-34
2021/08/21 04:42:49;;;;;;;9.40;8.35;;;19.90;70.90;;;;;;5055917;28;20033;-35
2021/08/21 04:45:15;;;;;;;13.45;11.25;;;19.90;70.80;;;;;;5056066;28;20112;-36
2021/08/21 04:47:41;;;;;;;12.00;10.90;;;20.00;70.80;;;;;;5055767;28;20032;-35
2021/08/21 04:50:07;;;;;;;12.35;11.15;;;20.00;70.80;;;;;;5056145;28;20040;-36
2021/08/21 04:52:33;;;;;;;13.35;12.00;;;20.10;70.80;;;;;;5055671;28;20036;-36
2021/08/21 04:54:59;;;;;;;11.07;10.02;;;20.10;70.60;;;;;;5056095;28;20021;-35
2021/08/21 04:57:24;;;;;;;11.30;10.20;;;20.10;70.50;;;;;;5055121;28;20039;-34
2021/08/21 04:59:50;;;;;;;11.98;10.52;;;20.20;70.50;;;;;;5055870;28;20262;-35
2021/08/21 05:02:16;;;;;;;13.82;12.45;;;20.20;70.50;;;;;;5055266;28;20029;-35
2021/08/21 05:04:42;;;;;;;11.77;10.27;;;20.20;70.50;;;;;;5055918;28;20032;-36
2021/08/21 05:07:08;;;;;;;13.57;12.27;;;20.20;70.30;;;;;;5055803;28;20048;-36
2021/08/21 05:09:33;;;;;;;13.98;10.43;;;20.20;70.40;;;;;;5055459;28;20033;-35
2021/08/21 05:11:59;;;;;;;11.77;10.70;;;20.30;70.40;;;;;;5055501;28;20025;-36
2021/08/21 05:14:25;;;;;;;13.13;11.88;;;20.30;70.50;;;;;;5055951;28;20033;-35
2021/08/21 05:16:50;;;;;;;13.82;9.75;;;20.40;70.60;;;;;;5055118;28;20057;-36
2021/08/21 05:21:52;;;;;;;10.75;8.75;;;20.50;70.70;;;;;;5055469;28;20516;-34
2021/08/21 05:24:18;;;;;;;9.00;7.22;;;20.60;70.60;;;;;;5055858;28;20329;-35
2021/08/21 05:26:47;;;;;;;9.40;7.97;;;20.60;70.30;;;;;;5055510;28;20032;-36
2021/08/21 05:29:14;;;;;;;11.65;10.55;;;20.70;70.10;;;;;;5055844;28;20068;-35
2021/08/21 05:31:39;;;;;;;9.70;8.70;;;20.80;69.70;;;;;;5055268;28;20045;-36
2021/08/21 05:34:05;;;;;;;11.38;10.27;;;20.90;69.80;;;;;;5055352;28;20029;-35
2021/08/21 05:36:31;;;;;;;13.18;11.88;;;20.90;69.70;;;;;;5055241;28;20029;-36
2021/08/21 05:38:56;;;;;;;12.82;9.65;;;21.00;69.40;;;;;;5054847;28;20487;-35
2021/08/21 05:41:22;;;;;;;14.75;9.10;;;21.10;69.10;;;;;;5055097;28;20036;-36
2021/08/21 05:43:48;;;;;;;13.18;11.73;;;21.20;69.10;;;;;;5054869;28;20021;-36
2021/08/21 05:46:13;;;;;;;12.40;10.80;;;21.20;69.00;;;;;;5055654;28;20086;-35
2021/08/21 05:48:39;;;;;;;12.27;10.98;;;21.30;68.60;;;;;;5055186;28;20037;-36
2021/08/21 05:51:05;;;;;;;15.02;13.65;;;21.30;68.60;;;;;;5055755;28;20487;-34
2021/08/21 05:53:32;;;;;;;11.27;9.32;;;21.40;68.50;;;;;;5059293;28;20032;-35
2021/08/21 05:55:58;;;;;;;11.25;10.15;;;21.40;68.70;;;;;;5059371;28;20033;-36
2021/08/21 05:58:23;;;;;;;10.65;9.75;;;21.50;68.40;;;;;;5058681;28;20029;-35
2021/08/21 06:00:49;;;;;;;12.07;10.88;;;21.50;68.20;;;;;;5059270;28;20064;-34
2021/08/21 06:03:17;;;;;;;14.10;10.98;;;21.60;68.10;;;;;;5059056;28;20041;-36
2021/08/21 06:05:43;;;;;;;13.10;11.90;;;21.70;67.90;;;;;;5059000;28;20151;-36
2021/08/21 06:08:08;;;;;;;11.52;10.43;;;21.70;67.80;;;;;;5058988;28;20113;-35
2021/08/21 06:10:34;;;;;;;14.05;10.27;;;21.70;68.10;;;;;;5059185;28;20459;-36
2021/08/21 06:13:00;;;;;;;21.10;13.35;;;21.80;67.80;;;;;;5058941;28;20025;-36
2021/08/21 06:15:25;;;;;;;11.43;9.20;;;21.90;67.80;;;;;;5058677;28;20071;-35
2021/08/21 06:17:51;;;;;;;11.05;8.18;;;21.90;68.00;;;;;;5058601;28;20404;-37
2021/08/21 06:20:17;;;;;;;11.35;9.48;;;22.00;67.90;;;;;;5058736;28;20438;-36
2021/08/21 06:22:42;;;;;;;9.38;8.48;;;22.10;67.70;;;;;;5058581;28;20056;-36
2021/08/21 06:25:09;;;;;;;11.50;10.48;;;22.10;67.50;;;;;;5058896;28;20036;-36
2021/08/21 06:27:36;;;;;;;11.25;9.52;;;22.20;67.30;;;;;;5058059;28;20029;-35
2021/08/21 06:30:02;;;;;;;9.98;8.98;;;22.30;66.70;;;;;;5058720;28;20028;-35
2021/08/21 06:32:28;;;;;;;9.80;8.00;;;22.40;66.80;;;;;;5058631;28;20037;-34
2021/08/21 06:34:53;;;;;;;8.60;7.65;;;22.50;66.70;;;;;;5058697;28;20444;-36
2021/08/21 06:37:19;;;;;;;12.40;7.53;;;22.50;66.60;;;;;;5058400;28;20389;-35
2021/08/21 06:39:45;;;;;;;9.13;8.40;;;22.60;66.30;;;;;;5058274;28;20291;-35
2021/08/21 06:42:10;;;;;;;10.55;9.48;;;22.70;66.10;;;;;;5058277;28;20070;-35
2021/08/21 06:44:36;;;;;;;7.70;7.00;;;22.80;65.90;;;;;;5058153;28;20029;-35
2021/08/21 06:47:02;;;;;;;9.32;8.15;;;22.80;66.10;;;;;;5057099;28;20033;-35
2021/08/21 06:49:27;;;;;;;7.93;7.22;;;22.90;65.50;;;;;;5058400;28;20039;-36
2021/08/21 06:51:53;;;;;;;8.00;7.22;;;23.00;64.70;;;;;;5058503;28;20029;-35
2021/08/21 06:54:20;;;;;;;11.82;7.47;;;23.00;64.70;;;;;;5058223;28;20074;-36
2021/08/21 06:56:46;;;;;;;7.65;6.85;;;23.10;64.60;;;;;;5058063;28;20052;-35
2021/08/21 06:59:11;;;;;;;9.13;6.75;;;23.20;64.50;;;;;;5057804;28;20021;-35
2021/08/21 07:01:37;;;;;;;8.07;7.28;;;23.20;64.00;;;;;;5057779;28;20091;-35
2021/08/21 07:04:03;;;;;;;7.28;6.68;;;23.30;64.20;;;;;;5057531;28;20469;-36
2021/08/21 07:06:29;;;;;;;9.52;8.65;;;23.40;64.40;;;;;;5057758;28;20033;-36
2021/08/21 07:08:55;;;;;;;8.43;7.63;;;23.50;64.40;;;;;;5057842;28;20036;-35
2021/08/21 07:11:20;;;;;;;9.07;8.18;;;23.50;63.80;;;;;;5057836;28;20063;-35
2021/08/21 07:13:46;;;;;;;7.97;7.03;;;23.60;63.80;;;;;;5057706;28;20457;-35
2021/08/21 07:16:13;;;;;;;7.38;6.65;;;23.70;62.00;;;;;;5057513;28;20045;-35
2021/08/21 07:18:39;;;;;;;8.25;7.40;;;23.70;62.00;;;;;;5057266;28;20036;-35
2021/08/21 07:21:07;;;;;;;8.50;5.68;;;23.80;61.40;;;;;;5057971;28;20066;-34
2021/08/21 07:23:32;;;;;;;7.38;6.68;;;23.80;61.10;;;;;;5057195;28;20040;-35
2021/08/21 07:25:58;;;;;;;8.05;7.30;;;23.80;60.70;;;;;;5057125;28;20033;-37
2021/08/21 07:28:23;;;;;;;8.40;7.60;;;23.90;60.60;;;;;;5056935;28;20029;-36
2021/08/21 07:30:49;;;;;;;11.38;8.18;;;23.90;60.50;;;;;;5057563;28;20032;-36
2021/08/21 07:33:15;;;;;;;7.32;6.57;;;23.90;60.30;;;;;;5057446;28;20057;-35
2021/08/21 07:35:40;;;;;;;8.27;6.57;;;24.00;60.40;;;;;;5057326;28;20112;-36
2021/08/21 07:38:06;;;;;;;7.65;6.95;;;24.10;60.20;;;;;;5057096;28;20164;-35
2021/08/21 07:40:34;;;;;;;8.18;7.38;;;24.10;60.20;;;;;;5056874;28;20033;-34
2021/08/21 07:43:00;;;;;;;8.38;7.15;;;24.20;60.30;;;;;;5056807;28;20043;-37
2021/08/21 07:45:26;;;;;;;8.40;6.80;;;24.20;59.90;;;;;;5057070;28;20107;-34
2021/08/21 07:47:52;;;;;;;9.13;6.70;;;24.30;59.80;;;;;;5056749;28;20036;-35
2021/08/21 07:50:18;;;;;;;8.07;6.80;;;24.30;59.90;;;;;;5057372;28;20405;-35
2021/08/21 07:52:45;;;;;;;6.53;5.70;;;24.30;59.30;;;;;;5056755;28;20060;-36
2021/08/21 07:55:11;;;;;;;7.50;6.80;;;24.30;59.10;;;;;;5057492;28;20029;-36
2021/08/21 07:57:37;;;;;;;7.78;5.88;;;24.40;59.20;;;;;;5056450;28;20494;-36
2021/08/21 08:00:03;;;;;;;7.15;6.43;;;24.40;59.30;;;;;;5057167;28;20033;-36
2021/08/21 08:02:28;;;;;;;6.43;5.78;;;24.40;59.50;;;;;;5056441;28;20047;-35
2021/08/21 08:04:54;;;;;;;6.47;5.85;;;24.50;59.30;;;;;;5056744;28;20111;-35
2021/08/21 08:07:20;;;;;;;8.00;6.45;;;24.50;58.90;;;;;;5053581;28;20109;-36
2021/08/21 08:09:45;;;;;;;7.28;6.57;;;24.60;58.50;;;;;;5056680;28;20391;-36
2021/08/21 08:12:11;;;;;;;9.48;6.38;;;24.60;58.40;;;;;;5055979;28;20108;-35
2021/08/21 08:14:37;;;;;;;8.07;7.38;;;24.70;58.60;;;;;;5055571;28;20021;-36
2021/08/21 08:17:03;;;;;;;7.78;5.95;;;24.70;58.60;;;;;;5055795;28;20131;-36
2021/08/21 08:19:28;;;;;;;6.20;5.38;;;24.80;58.10;;;;;;5055885;28;20060;-36
2021/08/21 08:21:54;;;;;;;8.75;6.50;;;24.80;57.60;;;;;;5055847;28;20115;-35
2021/08/21 08:24:19;;;;;;;6.80;6.20;;;24.90;57.60;;;;;;5056430;28;20029;-35
2021/08/21 08:26:46;;;;;;;7.32;6.28;;;24.90;57.20;;;;;;5055994;28;20032;-35
2021/08/21 08:29:11;;;;;;;7.00;6.30;;;25.00;56.80;;;;;;5056321;28;20029;-35
2021/08/21 08:31:37;;;;;;;7.10;6.43;;;25.00;56.30;;;;;;5055770;28;20439;-35
2021/08/21 08:34:03;;;;;;;6.60;6.00;;;25.00;56.10;;;;;;5055954;28;20432;-36
2021/08/21 08:36:29;;;;;;;7.35;6.53;;;25.00;56.00;;;;;;5055776;28;20039;-35
2021/08/21 08:38:54;;;;;;;6.22;5.63;;;25.10;56.10;;;;;;5055601;28;20112;-35
2021/08/21 08:41:22;;;;;;;6.80;6.13;;;25.10;55.70;;;;;;5055894;28;20124;-35
2021/08/21 08:43:49;;;;;;;5.97;5.30;;;25.20;55.30;;;;;;5055707;28;20054;-35
2021/08/21 08:46:18;;;;;;;7.05;5.82;;;25.20;55.30;;;;;;5056080;28;20033;-35
2021/08/21 08:48:45;;;;;;;10.40;6.50;;;25.20;55.20;;;;;;5055631;28;20378;-36
2021/08/21 08:51:11;;;;;;;7.28;6.57;;;25.20;54.70;;;;;;5055838;28;20040;-35
2021/08/21 08:53:37;;;;;;;5.97;5.32;;;25.30;55.10;;;;;;5055391;28;20032;-36
2021/08/21 08:56:04;;;;;;;6.70;5.55;;;25.30;54.40;;;;;;5056158;28;20021;-35
2021/08/21 08:58:29;;;;;;;5.88;5.32;;;25.40;54.70;;;;;;5055030;28;20025;-36
2021/08/21 09:00:55;;;;;;;5.45;4.95;;;25.40;54.70;;;;;;5055977;28;20036;-37
2021/08/21 09:03:24;;;;;;;6.18;5.57;;;25.50;54.50;;;;;;5055095;28;20106;-35
2021/08/21 09:05:50;;;;;;;5.25;4.75;;;25.50;54.50;;;;;;5055849;28;20093;-35
2021/08/21 09:08:26;;;;;;;5.68;5.10;;;25.50;54.40;;;;;;5055119;28;20129;-36
2021/08/21 09:10:51;;;;;;;5.88;5.28;;;25.60;54.20;;;;;;5055603;28;20029;-35
2021/08/21 09:13:18;;;;;;;6.53;5.93;;;25.70;54.00;;;;;;5055031;28;20082;-36
2021/08/21 09:15:47;;;;;;;6.93;6.32;;;25.70;53.80;;;;;;5055190;28;20045;-35
2021/08/21 09:18:22;;;;;;;6.50;5.78;;;25.80;54.40;;;;;;5055049;28;20037;-35
2021/08/21 09:20:47;;;;;;;7.45;5.57;;;25.80;54.30;;;;;;5055414;28;20029;-37
2021/08/21 09:23:25;;;;;;;6.45;5.78;;;25.90;54.00;;;;;;5054984;28;20464;-35
2021/08/21 09:26:09;;;;;;;6.45;5.82;;;25.90;52.90;;;;;;5057105;28;20032;-35
2021/08/21 09:28:36;;;;;;;6.35;5.85;;;26.00;52.90;;;;;;5059557;28;20112;-36
2021/08/21 09:31:10;;;;;;;6.20;5.60;;;26.00;52.20;;;;;;5059749;28;20083;-36
2021/08/21 09:33:39;;;;;;;5.57;5.07;;;26.10;52.50;;;;;;5059448;28;20025;-36
2021/08/21 09:36:09;;;;;;;6.32;5.00;;;26.20;52.20;;;;;;5059766;28;20109;-35
2021/08/21 09:38:35;;;;;;;6.53;5.93;;;26.20;52.60;;;;;;5058969;28;20043;-37
2021/08/21 09:41:07;;;;;;;7.20;5.63;;;26.20;52.00;;;;;;5059599;28;20029;-35
2021/08/21 09:43:35;;;;;;;5.68;5.10;;;26.20;50.80;;;;;;5059281;28;20124;-37
2021/08/21 09:46:07;;;;;;;6.20;5.22;;;26.20;51.40;;;;;;5059427;28;20082;-36
2021/08/21 09:48:33;;;;;;;7.55;6.00;;;26.30;51.30;;;;;;5059213;28;20386;-36
2021/08/21 09:50:59;;;;;;;5.93;5.28;;;26.30;51.80;;;;;;5059078;28;20061;-36
2021/08/21 09:53:36;;;;;;;5.75;5.25;;;26.30;50.70;;;;;;5058370;28;20068;-35
2021/08/21 09:56:11;;;;;;;5.72;5.07;;;26.40;51.30;;;;;;5059324;28;20429;-36
2021/08/21 09:58:37;;;;;;;4.63;4.13;;;26.40;50.60;;;;;;5058770;28;20029;-35
2021/08/21 10:01:05;;;;;;;5.90;4.60;;;26.40;50.30;;;;;;5058792;28;20029;-37
2021/08/21 10:03:31;;;;;;;7.43;4.50;;;26.40;49.60;;;;;;5059144;28;20029;-36
2021/08/21 10:05:57;;;;;;;5.10;4.18;;;26.40;50.10;;;;;;5059037;28;20032;-36
2021/08/21 10:08:27;;;;;;;5.70;4.68;;;26.40;50.60;;;;;;5058798;28;20267;-35
2021/08/21 10:10:54;;;;;;;4.68;4.07;;;26.40;50.40;;;;;;5059147;28;20032;-35
2021/08/21 10:13:30;;;;;;;6.70;4.47;;;26.50;50.20;;;;;;5058663;28;20060;-37
2021/08/21 10:15:57;;;;;;;5.78;4.88;;;26.50;50.40;;;;;;5058349;28;20124;-34
2021/08/21 10:18:23;;;;;;;5.95;4.95;;;26.60;51.10;;;;;;5058734;28;20048;-35
2021/08/21 10:20:49;;;;;;;5.10;4.15;;;26.60;50.50;;;;;;5058941;28;20021;-34
2021/08/21 10:23:26;;;;;;;4.97;4.03;;;26.70;50.50;;;;;;5057689;28;20040;-37
2021/08/21 10:26:03;;;;;;;5.10;4.60;;;26.70;50.20;;;;;;5058618;28;20111;-36
2021/08/21 10:28:33;;;;;;;6.35;4.80;;;26.70;49.80;;;;;;5058245;28;20028;-34
2021/08/21 10:30:59;;;;;;;;;;;26.70;50.20;;;;;;5058858;28;20037;-34
2021/08/21 10:33:28;;;;;;;6.70;4.30;;;26.80;50.20;;;;;;5057721;28;20032;-34
2021/08/21 10:35:56;;;;;;;8.43;4.45;;;26.70;50.70;;;;;;5058483;28;20079;-36
2021/08/21 10:38:33;;;;;;;6.88;5.40;;;26.80;50.20;;;;;;5056989;28;20120;-37
2021/08/21 10:41:11;;;;;;;4.88;4.38;;;26.80;49.90;;;;;;5058133;28;20052;-36
2021/08/21 10:43:51;;;;;;;5.07;3.92;;;26.80;49.90;;;;;;5057594;28;20056;-37
2021/08/21 10:46:29;;;;;;;6.45;4.53;;;26.90;49.80;;;;;;5057875;28;20120;-37
2021/08/21 10:48:55;;;;;;;5.90;4.10;;;26.90;49.00;;;;;;5057478;28;20029;-35
2021/08/21 10:51:37;;;;;;;8.60;4.25;;;26.90;49.00;;;;;;5058185;28;20356;-36
2021/08/21 10:54:25;;;;;;;7.05;4.30;;;27.00;48.20;;;;;;5057778;28;20047;-36
2021/08/21 10:56:51;;;;;;;6.82;4.60;;;27.00;47.00;;;;;;5057971;28;20032;-34
2021/08/21 10:59:53;;;;;;;8.07;4.85;;;27.00;48.00;;;;;;5057900;28;20309;-35
2021/08/21 11:02:33;;;;;;;7.82;5.03;;;27.10;47.00;;;;;;5055605;28;20037;-36
2021/08/21 11:05:00;;;;;;;6.68;5.05;;;27.10;46.80;;;;;;5057683;28;20363;-34
2021/08/21 11:07:40;;;;;;;4.88;4.38;;;27.10;47.70;;;;;;5057486;28;20066;-36
2021/08/21 11:10:23;;;;;;;6.38;4.57;;;27.20;46.60;;;;;;5057871;28;20385;-36
2021/08/21 11:12:51;;;;;;;7.80;5.22;;;27.30;46.50;;;;;;5053676;28;20358;-34
2021/08/21 11:15:19;;;;;;;5.38;3.90;;;27.30;46.70;;;;;;5057572;28;20033;-34
2021/08/21 11:17:45;;;;;;;5.53;4.18;;;27.40;46.10;;;;;;5057255;28;20451;-37
2021/08/21 11:20:34;;;;;;;6.93;4.88;;;27.50;46.00;;;;;;5057640;28;20052;-35
2021/08/21 11:23:08;;;;;;;7.75;4.43;;;27.50;46.50;;;;;;5057557;28;20064;-37
2021/08/21 11:25:35;;;;;;;5.50;5.00;;;27.60;46.70;;;;;;5057240;28;20381;-34
2021/08/21 11:28:23;;;;;;;5.30;4.15;;;27.60;46.80;;;;;;5057208;28;20306;-34
2021/08/21 11:31:09;;;;;;;6.35;4.38;;;27.60;46.10;;;;;;5057204;28;20032;-35
2021/08/21 11:33:41;;;;;;;7.53;4.25;;;27.60;46.00;;;;;;5056475;28;20321;-34
2021/08/21 11:36:10;;;;;;;8.38;4.18;;;27.70;46.10;;;;;;5056767;28;20150;-35
2021/08/21 11:38:39;;;;;;;5.53;4.68;;;27.80;45.90;;;;;;5056947;28;20029;-35
2021/08/21 11:41:13;;;;;;;4.35;3.95;;;27.90;44.70;;;;;;5057154;28;20041;-37
2021/08/21 11:43:41;;;;;;;4.75;3.90;;;28.10;45.60;;;;;;5057016;28;20349;-35
2021/08/21 11:46:08;;;;;;;5.45;4.85;;;28.20;45.30;;;;;;5056991;28;20037;-34
2021/08/21 11:48:37;;;;;;;4.82;4.32;;;28.40;43.80;;;;;;5056467;28;20083;-35
2021/08/21 11:51:04;;;;;;;10.10;4.90;;;28.50;45.00;;;;;;5057094;28;20063;-34
2021/08/21 11:53:39;;;;;;;6.93;4.05;;;28.60;43.70;;;;;;5056347;28;20021;-35
2021/08/21 11:56:05;;;;;;;11.57;5.25;;;28.80;42.80;;;;;;5056990;28;20036;-35
2021/08/21 11:58:33;;;;;;;6.32;4.80;;;29.00;42.40;;;;;;5056387;28;20079;-37
2021/08/21 12:01:07;;;;;;;6.20;4.60;;;29.10;43.10;;;;;;5057112;28;20308;-35
2021/08/21 12:06:26;;;;;;;5.78;5.20;;;29.50;41.60;;;;;;5056688;28;20083;-35
2021/08/21 12:09:05;;;;;;;5.38;4.85;;;29.60;40.90;;;;;;5056317;28;20425;-35
2021/08/21 12:11:31;;;;;;;4.43;4.03;;;29.70;41.50;;;;;;5056065;28;20333;-36
2021/08/21 12:13:59;;;;;;;5.35;4.90;;;29.80;41.80;;;;;;5056453;28;20029;-35
2021/08/21 12:16:30;;;;;;;5.55;5.05;;;30.00;41.40;;;;;;5055655;28;20140;-35
2021/08/21 12:18:56;;;;;;;5.78;4.45;;;30.00;41.30;;;;;;5056091;28;20159;-36
2021/08/21 12:21:23;;;;;;;10.73;4.30;;;30.10;40.80;;;;;;5055870;28;20103;-34
2021/08/21 12:23:51;;;;;;;6.10;5.50;;;30.10;39.40;;;;;;5055991;28;20105;-35
2021/08/21 12:26:34;;;;;;;4.90;4.40;;;30.20;38.90;;;;;;5056002;28;20041;-35
2021/08/21 12:29:01;;;;;;;7.22;4.18;;;30.20;40.60;;;;;;5056232;28;20052;-34
2021/08/21 12:31:40;;;;;;;6.85;4.40;;;30.30;40.50;;;;;;5056019;28;20435;-34
2021/08/21 12:34:09;;;;;;;5.35;4.78;;;30.40;40.60;;;;;;5055971;28;20072;-36
2021/08/21 12:36:42;;;;;;;6.45;3.97;;;30.50;40.80;;;;;;5054728;28;20384;-34
2021/08/21 12:39:15;;;;;;;4.57;4.10;;;30.50;40.10;;;;;;5056149;28;20064;-36
2021/08/21 12:41:57;;;;;;;6.43;5.90;;;30.60;38.30;;;;;;5055898;28;20037;-36
2021/08/21 12:44:36;;;;;;;7.00;4.40;;;30.70;39.50;;;;;;5056237;28;20025;-35
2021/08/21 12:47:05;;;;;;;4.70;4.30;;;30.80;38.40;;;;;;5055877;28;20063;-34
2021/08/21 12:49:37;;;;;;;4.95;4.45;;;30.90;39.20;;;;;;5055874;28;20041;-36